Time;durP1;ratioP1;P1;durP2;ratioP2;P2;SDS_P1;SDS_P2;PMS_P1;PMS_P2;Temp;Humidity;BMP_temperature;BMP_pressure;BME280_temperature;BME280_humidity;BME280_pressure;Samples;Min_cycle;Max_cycle;Signal;HPM_P1;HPM_P2
2023/07/16 00:02:12;;;;;;;3.83;1.00;;;18.70;96.60;;;;;;5054576;28;20021;-76
2023/07/16 00:04:38;;;;;;;4.53;1.17;;;18.70;96.40;;;;;;5054776;28;20079;-76
2023/07/16 00:07:03;;;;;;;7.10;2.28;;;18.70;96.00;;;;;;5053370;28;20022;-76
2023/07/16 00:09:29;;;;;;;4.47;1.25;;;18.60;95.80;;;;;;5052842;28;20052;-76
2023/07/16 00:11:56;;;;;;;5.85;1.67;;;18.50;95.60;;;;;;5053453;28;20056;-76
2023/07/16 00:14:22;;;;;;;4.18;1.08;;;18.50;95.70;;;;;;5053229;28;20047;-76
2023/07/16 00:16:48;;;;;;;5.45;1.13;;;18.50;95.60;;;;;;5053056;28;20029;-76
2023/07/16 00:19:15;;;;;;;8.27;1.20;;;18.60;95.50;;;;;;5054105;28;20063;-76
2023/07/16 00:21:40;;;;;;;3.83;0.95;;;18.50;95.40;;;;;;5054087;28;20033;-76
2023/07/16 00:24:06;;;;;;;5.32;1.27;;;18.50;95.40;;;;;;5052947;28;20079;-76
2023/07/16 00:26:32;;;;;;;4.90;1.00;;;18.50;95.40;;;;;;5054304;28;20029;-76
2023/07/16 00:28:57;;;;;;;4.05;0.95;;;18.50;95.40;;;;;;5052842;28;20029;-76
2023/07/16 00:31:23;;;;;;;5.70;1.33;;;18.50;95.40;;;;;;5053897;28;20021;-76
2023/07/16 00:33:48;;;;;;;4.55;1.40;;;18.50;95.50;;;;;;5053885;28;20025;-77
2023/07/16 00:36:14;;;;;;;6.07;1.40;;;18.50;95.60;;;;;;5036015;28;20615;-77
2023/07/16 00:38:41;;;;;;;3.83;1.55;;;18.50;95.70;;;;;;5053851;28;20032;-77
2023/07/16 00:41:07;;;;;;;5.20;1.77;;;18.50;95.80;;;;;;5052626;28;20047;-76
2023/07/16 00:43:32;;;;;;;6.90;1.50;;;18.50;95.90;;;;;;5052360;28;20025;-76
2023/07/16 00:45:58;;;;;;;3.38;1.15;;;18.50;96.00;;;;;;5053723;28;20033;-76
2023/07/16 00:48:24;;;;;;;5.88;1.98;;;18.50;96.10;;;;;;5052319;28;20023;-77
2023/07/16 00:50:52;;;;;;;6.00;1.73;;;18.40;96.20;;;;;;5053616;28;20021;-76
2023/07/16 00:53:18;;;;;;;7.05;1.50;;;18.40;96.30;;;;;;5053485;28;20029;-76
2023/07/16 00:55:43;;;;;;;4.78;1.70;;;18.40;96.40;;;;;;5035752;28;20036;-76
2023/07/16 00:58:09;;;;;;;7.03;2.05;;;18.40;96.70;;;;;;5035687;28;20485;-77
2023/07/16 01:00:37;;;;;;;7.90;1.85;;;18.40;96.50;;;;;;5053649;28;20496;-76
2023/07/16 01:03:05;;;;;;;5.82;1.33;;;18.40;96.50;;;;;;5053448;28;20028;-76
2023/07/16 01:06:03;;;;;;;5.40;1.95;;;18.40;96.30;;;;;;5052206;28;20029;-76
2023/07/16 01:08:35;;;;;;;5.70;1.60;;;18.40;96.20;;;;;;5049645;28;20037;-76
2023/07/16 01:11:03;;;;;;;5.15;1.70;;;18.40;95.80;;;;;;5052002;28;20017;-76
2023/07/16 01:13:29;;;;;;;5.80;1.65;;;18.40;95.60;;;;;;5053236;28;20071;-76
2023/07/16 01:15:55;;;;;;;6.18;1.90;;;18.40;95.40;;;;;;5052111;28;20425;-76
2023/07/16 01:18:20;;;;;;;7.38;1.80;;;18.40;95.20;;;;;;5035400;28;20163;-76
2023/07/16 01:20:46;;;;;;;10.32;1.48;;;18.40;95.10;;;;;;5053247;28;20508;-76
2023/07/16 01:23:44;;;;;;;7.50;1.50;;;18.40;95.00;;;;;;5052047;28;20112;-76
2023/07/16 01:26:16;;;;;;;5.53;1.80;;;18.40;94.90;;;;;;5053190;28;20082;-76
2023/07/16 01:29:24;;;;;;;7.80;1.73;;;18.30;94.50;;;;;;5053139;28;20078;-77
2023/07/16 01:31:51;;;;;;;4.53;1.45;;;18.20;94.40;;;;;;5053241;28;20021;-77
2023/07/16 01:34:17;;;;;;;11.60;1.50;;;18.20;94.30;;;;;;5053126;28;20477;-77
2023/07/16 01:36:43;;;;;;;7.00;1.70;;;18.10;94.20;;;;;;5035369;28;20040;-77
2023/07/16 01:39:09;;;;;;;8.70;1.65;;;18.10;94.10;;;;;;5052181;28;20033;-78
2023/07/16 01:41:35;;;;;;;8.35;1.85;;;18.10;94.10;;;;;;5053228;28;20063;-76
2023/07/16 01:44:00;;;;;;;8.88;1.83;;;18.00;94.00;;;;;;5051877;28;20033;-77
2023/07/16 01:46:26;;;;;;;7.32;1.50;;;18.00;93.80;;;;;;5051915;28;20163;-77
2023/07/16 01:48:52;;;;;;;7.07;1.52;;;17.90;93.80;;;;;;5053008;28;20100;-77
2023/07/16 01:51:19;;;;;;;5.50;1.30;;;17.90;93.70;;;;;;5035133;28;20131;-77
2023/07/16 01:53:45;;;;;;;5.47;1.65;;;17.90;93.70;;;;;;5035426;28;20366;-77
2023/07/16 01:56:12;;;;;;;6.47;1.23;;;17.80;93.60;;;;;;5052941;28;20075;-77
2023/07/16 01:58:38;;;;;;;7.60;1.30;;;17.80;93.50;;;;;;5035219;28;20031;-78
2023/07/16 02:01:04;;;;;;;7.53;1.27;;;17.80;93.50;;;;;;5051709;28;20029;-77
2023/07/16 02:03:29;;;;;;;6.93;1.50;;;17.80;93.40;;;;;;5051453;28;20021;-77
2023/07/16 02:05:55;;;;;;;7.13;1.35;;;17.70;93.30;;;;;;5035489;28;20037;-77
2023/07/16 02:08:21;;;;;;;6.35;1.48;;;17.70;93.20;;;;;;5052646;28;20513;-77
2023/07/16 02:10:50;;;;;;;8.80;1.35;;;17.70;93.20;;;;;;5051627;28;20483;-78
2023/07/16 02:13:16;;;;;;;5.10;1.33;;;17.70;93.10;;;;;;5034998;28;20040;-76
2023/07/16 02:15:42;;;;;;;6.30;2.13;;;17.60;93.10;;;;;;5052835;28;20068;-77
2023/07/16 02:18:08;;;;;;;8.00;1.70;;;17.60;93.10;;;;;;5055864;28;20112;-77
2023/07/16 02:20:33;;;;;;;5.57;1.33;;;17.50;93.00;;;;;;5056788;28;20475;-77
2023/07/16 02:22:59;;;;;;;5.70;1.33;;;17.50;93.00;;;;;;5055465;28;20543;-77
2023/07/16 02:25:25;;;;;;;5.32;1.48;;;17.50;93.00;;;;;;5038871;28;20342;-77
2023/07/16 02:27:51;;;;;;;8.43;1.40;;;17.50;92.90;;;;;;5055277;28;20029;-76
2023/07/16 02:30:17;;;;;;;6.55;1.35;;;17.40;93.20;;;;;;5055189;28;20027;-77
2023/07/16 02:32:43;;;;;;;6.53;1.80;;;17.40;92.90;;;;;;5056315;28;20033;-77
2023/07/16 02:35:09;;;;;;;7.90;1.65;;;17.40;92.90;;;;;;5055146;28;20049;-77
2023/07/16 02:37:35;;;;;;;5.57;1.60;;;17.40;92.90;;;;;;5056290;28;20430;-76
2023/07/16 02:40:00;;;;;;;9.45;1.85;;;17.30;92.80;;;;;;5054894;28;20029;-76
2023/07/16 02:42:26;;;;;;;4.68;1.38;;;17.30;92.70;;;;;;5054804;28;20029;-76
2023/07/16 02:44:52;;;;;;;5.03;1.40;;;17.30;92.70;;;;;;5056109;28;20493;-77
2023/07/16 02:47:18;;;;;;;4.63;1.60;;;17.30;92.70;;;;;;5055950;28;20021;-77
2023/07/16 02:49:43;;;;;;;4.20;1.50;;;17.20;92.70;;;;;;5054912;28;20036;-78
2023/07/16 02:52:09;;;;;;;6.70;2.13;;;17.20;92.80;;;;;;5038098;28;20029;-77
2023/07/16 02:54:38;;;;;;;7.85;1.65;;;17.10;92.80;;;;;;5055214;28;20033;-77
2023/07/16 02:57:05;;;;;;;5.95;1.23;;;17.10;92.90;;;;;;5055951;28;20025;-77
2023/07/16 02:59:30;;;;;;;4.40;1.23;;;17.10;93.00;;;;;;5055723;28;20048;-77
2023/07/16 03:01:56;;;;;;;6.35;1.15;;;17.10;93.00;;;;;;5054374;28;20025;-77
2023/07/16 03:04:22;;;;;;;5.35;1.33;;;17.10;93.10;;;;;;5037746;28;20659;-77
2023/07/16 03:06:47;;;;;;;4.78;1.38;;;17.10;93.20;;;;;;5055750;28;20036;-77
2023/07/16 03:09:13;;;;;;;6.75;1.48;;;17.00;93.20;;;;;;5055271;28;20045;-77
2023/07/16 03:11:38;;;;;;;5.55;1.40;;;17.00;93.70;;;;;;5037791;28;20029;-76
2023/07/16 03:14:04;;;;;;;16.73;1.85;;;17.00;93.50;;;;;;5054228;28;20075;-77
2023/07/16 03:16:30;;;;;;;6.22;1.30;;;17.00;93.60;;;;;;5054186;28;20056;-77
2023/07/16 03:18:55;;;;;;;4.78;1.30;;;17.00;93.70;;;;;;5037572;28;20025;-77
2023/07/16 03:21:21;;;;;;;4.50;1.35;;;17.00;93.80;;;;;;5055508;28;20083;-78
2023/07/16 03:23:46;;;;;;;7.47;1.20;;;17.00;93.90;;;;;;5055257;28;20044;-76
2023/07/16 03:26:12;;;;;;;5.75;1.42;;;17.00;94.10;;;;;;5054259;28;20389;-77
2023/07/16 03:28:38;;;;;;;9.52;1.70;;;17.00;94.20;;;;;;5054188;28;20079;-76
2023/07/16 03:31:03;;;;;;;5.85;1.45;;;17.00;94.40;;;;;;5037434;28;20467;-76
2023/07/16 03:33:29;;;;;;;6.30;1.88;;;17.00;94.40;;;;;;5055244;28;20036;-76
2023/07/16 03:35:55;;;;;;;9.57;1.73;;;17.00;94.40;;;;;;5053924;28;20040;-77
2023/07/16 03:38:20;;;;;;;11.35;1.60;;;17.00;94.40;;;;;;5055099;28;20041;-77
2023/07/16 03:40:50;;;;;;;6.72;2.15;;;17.00;94.40;;;;;;5055142;28;20044;-77
2023/07/16 03:43:16;;;;;;;8.30;2.15;;;17.00;94.40;;;;;;5054878;28;20040;-77
2023/07/16 03:45:42;;;;;;;5.53;1.60;;;17.00;94.70;;;;;;5037118;28;20044;-78
2023/07/16 03:48:08;;;;;;;9.43;2.05;;;17.00;94.40;;;;;;5054934;28;20369;-77
2023/07/16 03:50:34;;;;;;;8.90;1.90;;;16.90;94.30;;;;;;5053531;28;20064;-77
2023/07/16 03:53:00;;;;;;;8.95;2.20;;;17.00;94.40;;;;;;5054925;28;20492;-77
2023/07/16 03:55:26;;;;;;;5.38;1.83;;;17.00;94.30;;;;;;5053635;28;20076;-77
2023/07/16 03:57:51;;;;;;;9.13;1.90;;;17.00;94.30;;;;;;5054833;28;20029;-77
2023/07/16 04:00:17;;;;;;;10.48;2.00;;;17.00;94.20;;;;;;5054663;28;20032;-77
2023/07/16 04:02:43;;;;;;;6.72;1.70;;;17.00;94.20;;;;;;5053299;28;20036;-77
2023/07/16 04:05:10;;;;;;;8.18;2.10;;;16.90;94.10;;;;;;5055024;28;20083;-76
2023/07/16 04:07:36;;;;;;;8.45;1.88;;;17.00;94.10;;;;;;5053293;28;20075;-76
2023/07/16 04:10:02;;;;;;;6.68;1.83;;;16.90;94.00;;;;;;5036526;28;20025;-77
2023/07/16 04:12:27;;;;;;;9.40;2.50;;;17.00;94.10;;;;;;5054413;28;20385;-77
2023/07/16 04:14:58;;;;;;;5.53;1.75;;;17.00;94.10;;;;;;5053184;28;20043;-76
2023/07/16 04:17:24;;;;;;;4.75;1.60;;;17.00;94.20;;;;;;5053131;28;20481;-77
2023/07/16 04:19:50;;;;;;;8.25;1.85;;;17.00;94.20;;;;;;5053021;28;20571;-77
2023/07/16 04:22:16;;;;;;;4.40;1.80;;;17.00;94.30;;;;;;5054443;28;20108;-78
2023/07/16 04:24:41;;;;;;;8.60;2.05;;;17.00;94.40;;;;;;5052907;28;20129;-76
2023/07/16 04:27:07;;;;;;;4.47;1.83;;;17.00;94.50;;;;;;5054251;28;20025;-78
2023/07/16 04:29:33;;;;;;;5.40;1.55;;;17.00;94.50;;;;;;5052736;28;20029;-77
2023/07/16 04:31:59;;;;;;;4.80;1.30;;;17.00;94.60;;;;;;5053929;28;20025;-77
2023/07/16 04:34:25;;;;;;;7.45;2.55;;;17.00;94.70;;;;;;5054127;28;20481;-76
2023/07/16 04:36:50;;;;;;;4.30;1.60;;;17.00;94.70;;;;;;5036092;28;20047;-77
2023/07/16 04:39:16;;;;;;;8.35;1.88;;;17.10;94.70;;;;;;5052355;28;20033;-76
2023/07/16 04:41:42;;;;;;;6.70;1.98;;;17.00;94.60;;;;;;5052946;28;20051;-76
2023/07/16 04:44:07;;;;;;;8.02;2.10;;;17.00;94.60;;;;;;5035894;28;20436;-76
2023/07/16 04:46:33;;;;;;;7.03;2.28;;;17.10;94.50;;;;;;5052094;28;20056;-78
2023/07/16 04:48:59;;;;;;;7.60;1.92;;;17.00;94.30;;;;;;5035589;28;20032;-77
2023/07/16 04:51:25;;;;;;;6.20;2.03;;;17.00;94.20;;;;;;5051518;28;20064;-78
2023/07/16 04:53:51;;;;;;;5.60;2.25;;;17.00;94.10;;;;;;5044755;28;20489;-76
2023/07/16 04:56:17;;;;;;;10.45;2.80;;;17.00;93.90;;;;;;5051331;28;20037;-78
2023/07/16 04:58:42;;;;;;;7.60;2.00;;;17.10;93.80;;;;;;4999581;28;20441;-76
2023/07/16 05:01:09;;;;;;;6.15;2.33;;;17.10;93.70;;;;;;5048182;28;20509;-76
2023/07/16 05:03:35;;;;;;;6.15;2.20;;;17.10;93.60;;;;;;5033371;28;20485;-77
2023/07/16 05:06:02;;;;;;;7.07;2.28;;;17.10;93.40;;;;;;5033591;28;20466;-77
2023/07/16 05:08:27;;;;;;;6.47;2.22;;;17.10;93.30;;;;;;5033374;28;20061;-77
2023/07/16 05:10:53;;;;;;;8.30;2.38;;;17.10;93.20;;;;;;5032171;28;20088;-78
2023/07/16 05:13:18;;;;;;;5.88;2.20;;;17.10;93.00;;;;;;5032374;28;20035;-77
2023/07/16 05:15:44;;;;;;;7.85;2.22;;;17.10;92.90;;;;;;5015824;28;20389;-77
2023/07/16 05:18:10;;;;;;;6.80;2.90;;;17.00;92.80;;;;;;5033378;28;20492;-76
2023/07/16 05:20:36;;;;;;;5.63;2.42;;;17.00;92.80;;;;;;5032256;28;20543;-76
2023/07/16 05:23:01;;;;;;;9.63;2.80;;;17.00;92.70;;;;;;5032027;28;20520;-78
2023/07/16 05:25:27;;;;;;;7.03;2.90;;;17.00;92.60;;;;;;5031997;28;20045;-77
2023/07/16 05:27:53;;;;;;;7.40;3.60;;;17.00;92.70;;;;;;5015518;28;20033;-77
2023/07/16 05:30:18;;;;;;;6.10;2.50;;;17.00;92.50;;;;;;5032022;28;20022;-76
2023/07/16 05:32:44;;;;;;;7.00;2.38;;;17.00;92.40;;;;;;5032016;28;20018;-77
2023/07/16 05:35:10;;;;;;;7.63;3.30;;;17.00;92.40;;;;;;5032098;28;20469;-77
2023/07/16 05:37:35;;;;;;;10.95;3.08;;;17.00;92.20;;;;;;5033146;28;20029;-77
2023/07/16 05:40:02;;;;;;;6.35;2.50;;;17.00;92.20;;;;;;5024303;28;20026;-77
2023/07/16 05:42:28;;;;;;;6.35;2.35;;;17.10;92.10;;;;;;5030885;28;20029;-76
2023/07/16 05:44:54;;;;;;;11.32;3.15;;;17.10;92.00;;;;;;5013792;28;20022;-76
2023/07/16 05:47:19;;;;;;;6.80;2.83;;;17.10;91.80;;;;;;5014551;28;20085;-76
2023/07/16 05:49:45;;;;;;;8.63;2.60;;;17.00;91.80;;;;;;5030673;28;20026;-77
2023/07/16 05:52:11;;;;;;;9.43;3.05;;;17.10;91.80;;;;;;5033992;28;20030;-76
2023/07/16 05:54:36;;;;;;;7.63;3.38;;;17.10;91.70;;;;;;5035957;28;20529;-78
2023/07/16 05:57:02;;;;;;;8.82;3.00;;;17.10;91.60;;;;;;5037023;28;20367;-77
2023/07/16 05:59:28;;;;;;;10.55;3.20;;;17.10;91.40;;;;;;5035854;28;20033;-77
2023/07/16 06:01:53;;;;;;;7.43;2.75;;;17.10;91.40;;;;;;5019741;28;20098;-77
2023/07/16 06:04:19;;;;;;;7.38;2.90;;;17.10;91.30;;;;;;5037072;28;20037;-78
2023/07/16 06:06:44;;;;;;;9.63;3.60;;;17.10;91.30;;;;;;5035525;28;20034;-77
2023/07/16 06:09:11;;;;;;;8.50;3.25;;;17.20;91.30;;;;;;5035470;28;20052;-75
2023/07/16 06:11:37;;;;;;;12.45;3.00;;;17.20;91.30;;;;;;5002985;28;20394;-77
2023/07/16 06:14:02;;;;;;;11.57;3.70;;;17.20;91.10;;;;;;5035765;28;20068;-77
2023/07/16 06:16:28;;;;;;;11.48;3.63;;;17.20;90.70;;;;;;5035515;28;20030;-77
2023/07/16 06:18:53;;;;;;;11.15;4.10;;;17.20;90.80;;;;;;5035358;28;20428;-76
2023/07/16 06:21:19;;;;;;;10.55;4.70;;;17.20;90.70;;;;;;5018980;28;20036;-77
2023/07/16 06:23:45;;;;;;;7.82;3.30;;;17.20;90.60;;;;;;5018802;28;20120;-77
2023/07/16 06:26:10;;;;;;;9.10;3.75;;;17.30;90.60;;;;;;5035286;28;20114;-77
2023/07/16 06:28:36;;;;;;;6.75;2.95;;;17.30;90.50;;;;;;5036514;28;20074;-77
2023/07/16 06:31:02;;;;;;;9.93;3.85;;;17.30;90.50;;;;;;5036776;28;20029;-77
2023/07/16 06:33:28;;;;;;;11.45;3.78;;;17.30;90.40;;;;;;5035384;28;20032;-77
2023/07/16 06:35:53;;;;;;;11.57;4.20;;;17.40;90.40;;;;;;5036393;28;20040;-78
2023/07/16 06:38:19;;;;;;;8.50;3.95;;;17.40;90.10;;;;;;5018623;28;20033;-77
2023/07/16 06:40:49;;;;;;;8.80;4.07;;;17.40;90.00;;;;;;5036163;28;20079;-77
2023/07/16 06:43:15;;;;;;;9.90;3.53;;;17.40;90.10;;;;;;5034695;28;20416;-77
2023/07/16 06:45:41;;;;;;;12.63;4.00;;;17.50;90.00;;;;;;5035316;28;20152;-77
2023/07/16 06:48:07;;;;;;;8.68;3.75;;;17.50;89.80;;;;;;5036142;28;20049;-78
2023/07/16 06:50:32;;;;;;;8.65;3.55;;;17.50;89.80;;;;;;5002022;28;20450;-77
2023/07/16 06:52:58;;;;;;;8.23;3.50;;;17.50;89.70;;;;;;5018325;28;20478;-77
2023/07/16 06:55:23;;;;;;;6.50;2.72;;;17.60;90.20;;;;;;5018213;28;20041;-77
2023/07/16 06:57:49;;;;;;;7.20;3.33;;;17.60;89.80;;;;;;5035601;28;20481;-77
2023/07/16 07:00:15;;;;;;;7.82;3.10;;;17.60;89.60;;;;;;5035121;28;20026;-77
2023/07/16 07:02:41;;;;;;;6.80;3.38;;;17.70;89.20;;;;;;5035577;28;20026;-77
2023/07/16 07:05:07;;;;;;;8.40;3.25;;;17.70;89.20;;;;;;5034682;28;20028;-80
2023/07/16 07:07:32;;;;;;;6.93;3.05;;;17.70;89.20;;;;;;5018133;28;20029;-79
2023/07/16 07:09:58;;;;;;;9.40;3.92;;;17.80;89.20;;;;;;5034292;28;20026;-80
2023/07/16 07:12:23;;;;;;;9.82;3.85;;;17.80;89.20;;;;;;5034536;28;20063;-81
2023/07/16 07:14:49;;;;;;;12.43;3.35;;;17.80;88.80;;;;;;5035628;28;20088;-80
2023/07/16 07:17:15;;;;;;;8.07;3.78;;;17.80;88.70;;;;;;5035668;28;20051;-81
2023/07/16 07:19:41;;;;;;;9.10;3.05;;;17.80;88.60;;;;;;5034448;28;20033;-80
2023/07/16 07:22:07;;;;;;;9.38;4.03;;;17.90;88.70;;;;;;5034292;28;20033;-82
2023/07/16 07:24:32;;;;;;;10.10;4.00;;;17.90;88.40;;;;;;5017687;28;20030;-82
2023/07/16 07:26:58;;;;;;;8.40;3.55;;;17.90;88.20;;;;;;5034207;28;20037;-82
2023/07/16 07:29:23;;;;;;;9.70;4.15;;;18.00;88.30;;;;;;5034138;28;20375;-81
2023/07/16 07:31:50;;;;;;;10.88;4.00;;;18.00;87.90;;;;;;5035306;28;20026;-81
2023/07/16 07:34:15;;;;;;;11.05;4.10;;;18.00;87.90;;;;;;5034078;28;20087;-78
2023/07/16 07:36:41;;;;;;;8.80;3.70;;;18.00;87.50;;;;;;5017418;28;20025;-77
2023/07/16 07:39:07;;;;;;;9.77;4.88;;;18.10;87.60;;;;;;5017518;28;20069;-83
2023/07/16 07:41:33;;;;;;;11.20;4.03;;;18.10;87.40;;;;;;5033746;28;20091;-82
2023/07/16 07:43:59;;;;;;;10.82;4.43;;;18.20;87.50;;;;;;5034912;28;20037;-79
2023/07/16 07:46:24;;;;;;;8.98;4.05;;;18.20;86.90;;;;;;5033781;28;20024;-82
2023/07/16 07:48:50;;;;;;;9.60;3.45;;;18.30;86.80;;;;;;5033981;28;20057;-80
2023/07/16 07:51:16;;;;;;;6.90;3.28;;;18.30;86.20;;;;;;5033941;28;20429;-78
2023/07/16 07:53:41;;;;;;;8.05;3.75;;;18.30;86.00;;;;;;5033802;28;20072;-80
2023/07/16 07:56:07;;;;;;;8.32;3.65;;;18.30;86.10;;;;;;5034747;28;20032;-81
2023/07/16 07:58:33;;;;;;;9.57;3.65;;;18.40;85.80;;;;;;5034707;28;20044;-82
2023/07/16 08:01:05;;;;;;;12.88;3.95;;;18.40;86.40;;;;;;5016731;28;20063;-81
2023/07/16 08:03:31;;;;;;;10.38;4.30;;;18.40;85.40;;;;;;5016979;28;20371;-82
2023/07/16 08:05:56;;;;;;;9.95;3.60;;;18.50;85.20;;;;;;5032996;28;20097;-80
2023/07/16 08:08:22;;;;;;;7.97;3.92;;;18.50;85.20;;;;;;5033143;28;20076;-82
2023/07/16 08:10:47;;;;;;;9.13;3.55;;;18.60;85.00;;;;;;5033241;28;20477;-80
2023/07/16 08:13:13;;;;;;;7.53;3.70;;;18.60;84.90;;;;;;5017054;28;20034;-82
2023/07/16 08:15:39;;;;;;;9.40;4.03;;;18.60;84.80;;;;;;5033736;28;20037;-82
2023/07/16 08:18:04;;;;;;;8.25;3.72;;;18.70;84.60;;;;;;5034432;28;20038;-78
2023/07/16 08:20:30;;;;;;;9.90;3.45;;;18.70;84.70;;;;;;5033104;28;20075;-77
2023/07/16 08:22:56;;;;;;;10.20;3.80;;;18.80;84.90;;;;;;5032832;28;20084;-79
2023/07/16 08:25:22;;;;;;;9.60;4.70;;;18.80;84.80;;;;;;5033126;28;20216;-78
2023/07/16 08:27:47;;;;;;;15.13;4.30;;;19.00;84.70;;;;;;5032885;28;20030;-78
2023/07/16 08:30:13;;;;;;;8.48;4.47;;;19.00;84.10;;;;;;5034233;28;20032;-77
2023/07/16 08:32:39;;;;;;;10.30;4.35;;;19.00;83.30;;;;;;5032952;28;20040;-82
2023/07/16 08:35:05;;;;;;;9.48;4.07;;;19.10;82.90;;;;;;5034222;28;20029;-80
2023/07/16 08:37:31;;;;;;;12.10;4.13;;;19.10;82.90;;;;;;5033917;28;20033;-81
2023/07/16 08:39:57;;;;;;;9.93;4.13;;;19.10;82.60;;;;;;5016372;28;20060;-81
2023/07/16 08:42:23;;;;;;;8.30;3.38;;;19.20;82.60;;;;;;5016391;28;20124;-81
2023/07/16 08:44:50;;;;;;;9.43;3.53;;;19.30;82.70;;;;;;5033842;28;20025;-80
2023/07/16 08:47:16;;;;;;;10.13;4.15;;;19.40;82.20;;;;;;5033972;28;20071;-78
2023/07/16 08:49:56;;;;;;;7.78;3.63;;;19.40;82.10;;;;;;5032686;28;20386;-80
2023/07/16 08:52:22;;;;;;;8.27;3.13;;;19.50;82.10;;;;;;5033887;28;20021;-82
2023/07/16 08:54:48;;;;;;;9.27;3.70;;;19.60;82.00;;;;;;5032619;28;20029;-81
2023/07/16 08:57:14;;;;;;;10.07;4.32;;;19.60;81.60;;;;;;5033839;28;20359;-79
2023/07/16 08:59:40;;;;;;;10.32;3.78;;;19.70;81.20;;;;;;5034081;28;20429;-80
2023/07/16 09:02:06;;;;;;;9.65;3.75;;;19.80;81.10;;;;;;5032511;28;20036;-82
2023/07/16 09:04:33;;;;;;;8.10;3.42;;;19.90;80.90;;;;;;5032227;28;20378;-79
2023/07/16 09:06:58;;;;;;;6.80;3.42;;;20.00;80.90;;;;;;5033472;28;20493;-79
2023/07/16 09:09:24;;;;;;;10.48;3.92;;;20.00;80.80;;;;;;5033358;28;20049;-79
2023/07/16 09:11:51;;;;;;;8.48;3.70;;;20.20;80.70;;;;;;5032429;28;20432;-79
2023/07/16 09:14:18;;;;;;;8.18;3.85;;;20.20;80.30;;;;;;5033372;28;20100;-79
2023/07/16 09:16:48;;;;;;;7.22;3.40;;;20.30;79.70;;;;;;5031995;28;20557;-79
2023/07/16 09:19:17;;;;;;;7.95;3.40;;;20.50;79.30;;;;;;5033208;28;20428;-80
2023/07/16 09:21:43;;;;;;;8.75;3.10;;;20.50;79.10;;;;;;5016277;28;20026;-75
2023/07/16 09:24:08;;;;;;;8.65;3.70;;;20.60;78.80;;;;;;5033311;28;20041;-76
2023/07/16 09:26:38;;;;;;;7.72;3.80;;;20.70;78.40;;;;;;5032325;28;20034;-75
2023/07/16 09:29:07;;;;;;;6.63;3.05;;;20.80;78.00;;;;;;5015607;28;20389;-76
2023/07/16 09:31:33;;;;;;;7.88;3.70;;;20.80;77.60;;;;;;5040011;28;20033;-75
2023/07/16 09:33:59;;;;;;;5.32;3.17;;;20.90;77.20;;;;;;5048479;28;20056;-76
2023/07/16 09:36:25;;;;;;;8.98;3.47;;;20.90;77.10;;;;;;5033067;28;20389;-76
2023/07/16 09:38:54;;;;;;;9.82;3.67;;;20.80;76.80;;;;;;5033241;28;20033;-76
2023/07/16 09:41:20;;;;;;;6.53;3.08;;;20.80;76.80;;;;;;5033349;28;20052;-77
2023/07/16 09:43:47;;;;;;;7.05;3.15;;;20.80;76.60;;;;;;5015818;28;20444;-76
2023/07/16 09:46:12;;;;;;;8.13;3.38;;;20.70;76.50;;;;;;5032169;28;20408;-76
2023/07/16 09:48:38;;;;;;;8.88;3.38;;;20.60;76.60;;;;;;5015513;28;20028;-76
2023/07/16 09:51:07;;;;;;;9.57;3.40;;;20.60;76.20;;;;;;5031804;28;20176;-79
2023/07/16 09:53:34;;;;;;;5.70;2.85;;;20.60;76.20;;;;;;5033159;28;20488;-79
2023/07/16 09:56:02;;;;;;;6.53;3.10;;;20.60;76.40;;;;;;5033103;28;20124;-79
2023/07/16 09:58:28;;;;;;;9.02;3.20;;;20.60;76.10;;;;;;5032146;28;20025;-81
2023/07/16 10:00:54;;;;;;;8.70;3.42;;;20.70;75.90;;;;;;5015425;28;20036;-80
2023/07/16 10:03:20;;;;;;;9.45;4.05;;;20.80;75.90;;;;;;5031746;28;20112;-80
2023/07/16 10:05:45;;;;;;;6.65;3.00;;;20.90;75.50;;;;;;5033009;28;20051;-76
2023/07/16 10:08:19;;;;;;;8.35;3.28;;;20.90;75.40;;;;;;5027493;28;20025;-76
2023/07/16 10:10:57;;;;;;;6.78;2.80;;;21.00;75.40;;;;;;5052657;28;20025;-76
2023/07/16 10:13:23;;;;;;;5.72;2.63;;;21.20;75.30;;;;;;5051730;28;20477;-76
2023/07/16 10:15:57;;;;;;;7.30;2.78;;;21.40;75.20;;;;;;5050478;28;20020;-76
2023/07/16 10:18:30;;;;;;;11.40;3.38;;;21.50;74.60;;;;;;5051872;28;20032;-76
2023/07/16 10:21:07;;;;;;;7.00;2.65;;;21.60;74.40;;;;;;5052701;28;20037;-76
2023/07/16 10:23:44;;;;;;;6.07;2.88;;;21.70;74.10;;;;;;5052421;28;20091;-75
2023/07/16 10:26:12;;;;;;;7.15;2.55;;;21.70;74.10;;;;;;5051569;28;20033;-76
2023/07/16 10:28:39;;;;;;;6.70;3.45;;;21.80;73.80;;;;;;5052564;28;20513;-75
2023/07/16 10:31:07;;;;;;;6.28;2.92;;;21.80;73.50;;;;;;5035428;28;20024;-76
2023/07/16 10:33:37;;;;;;;6.80;2.88;;;21.90;73.10;;;;;;5051755;28;20052;-75
2023/07/16 10:36:02;;;;;;;9.90;3.60;;;21.90;72.50;;;;;;5018862;28;20025;-76
2023/07/16 10:38:28;;;;;;;6.00;2.58;;;21.90;72.30;;;;;;5053331;28;20099;-77
2023/07/16 10:40:55;;;;;;;6.32;2.78;;;21.90;72.30;;;;;;5055202;28;20036;-78
2023/07/16 10:43:21;;;;;;;4.95;2.15;;;21.90;72.20;;;;;;5056261;28;20033;-78
2023/07/16 10:45:47;;;;;;;8.32;2.90;;;22.00;72.20;;;;;;5054939;28;20388;-77
2023/07/16 10:48:13;;;;;;;7.03;3.13;;;21.90;72.10;;;;;;5054735;28;20104;-78
2023/07/16 10:50:38;;;;;;;6.20;2.85;;;21.90;72.10;;;;;;5056122;28;20021;-77
2023/07/16 10:53:04;;;;;;;6.20;2.58;;;22.00;72.10;;;;;;5054773;28;20017;-79
2023/07/16 10:55:32;;;;;;;7.30;2.28;;;22.10;72.10;;;;;;5038635;28;20025;-79
2023/07/16 10:57:58;;;;;;;5.95;2.97;;;22.10;72.00;;;;;;5055039;28;20155;-78
2023/07/16 11:00:24;;;;;;;5.90;3.00;;;22.10;71.70;;;;;;5055876;28;20063;-79
2023/07/16 11:02:50;;;;;;;9.57;2.90;;;22.10;71.60;;;;;;5056043;28;20491;-79
2023/07/16 11:05:18;;;;;;;6.90;2.72;;;22.10;71.50;;;;;;5037864;28;20480;-78
2023/07/16 11:07:49;;;;;;;6.72;2.25;;;22.10;71.30;;;;;;5055578;28;20493;-79
2023/07/16 11:10:18;;;;;;;7.15;2.67;;;22.00;71.20;;;;;;5054166;28;20033;-80
2023/07/16 11:12:44;;;;;;;5.47;2.35;;;21.90;71.00;;;;;;5037699;28;20029;-78
2023/07/16 11:15:11;;;;;;;10.82;2.70;;;21.90;70.80;;;;;;5054540;28;20032;-78
2023/07/16 11:17:39;;;;;;;6.55;2.45;;;21.80;70.90;;;;;;5036217;28;20029;-78
2023/07/16 11:20:08;;;;;;;5.20;2.33;;;21.80;71.00;;;;;;5054160;28;20098;-79
2023/07/16 11:22:38;;;;;;;6.05;3.13;;;21.80;71.20;;;;;;5070828;28;20366;-78
2023/07/16 11:25:10;;;;;;;5.70;2.38;;;21.90;71.40;;;;;;5073712;28;20029;-79
2023/07/16 11:27:41;;;;;;;7.40;2.72;;;22.00;71.40;;;;;;5073689;28;20017;-78
2023/07/16 11:30:07;;;;;;;5.90;2.60;;;22.00;71.20;;;;;;5074202;28;20021;-80
2023/07/16 11:32:41;;;;;;;6.03;2.38;;;22.10;71.20;;;;;;5074249;28;20032;-79
2023/07/16 11:35:07;;;;;;;;;;;22.10;71.20;;;;;;5075341;28;20056;-79
2023/07/16 11:37:35;;;;;;;7.65;2.35;;;22.20;71.20;;;;;;5073846;28;19908;-80
2023/07/16 11:40:08;;;;;;;6.43;2.55;;;22.30;71.20;;;;;;5057183;28;20094;-78
2023/07/16 11:42:38;;;;;;;6.70;2.60;;;22.40;71.10;;;;;;5073716;28;20039;-80
2023/07/16 11:45:16;;;;;;;6.93;2.25;;;22.40;70.80;;;;;;5073511;28;20388;-78
2023/07/16 11:47:42;;;;;;;4.35;2.00;;;22.40;70.50;;;;;;5074915;28;20078;-79
2023/07/16 11:50:08;;;;;;;6.07;2.80;;;22.30;70.10;;;;;;5039470;28;20564;-78
2023/07/16 11:52:33;;;;;;;6.78;2.70;;;22.30;70.00;;;;;;5074833;28;20036;-79
2023/07/16 11:55:00;;;;;;;5.43;2.03;;;22.20;70.20;;;;;;5074799;28;20085;-79
2023/07/16 11:57:25;;;;;;;7.38;2.42;;;22.10;70.70;;;;;;5073662;28;20444;-79
2023/07/16 11:59:51;;;;;;;5.93;2.83;;;22.20;71.10;;;;;;5075020;28;20067;-78
2023/07/16 12:02:17;;;;;;;7.82;2.47;;;22.30;71.40;;;;;;5056755;28;20036;-77
2023/07/16 12:04:43;;;;;;;5.75;2.40;;;22.40;71.50;;;;;;5074558;28;20473;-79
2023/07/16 12:07:08;;;;;;;5.50;2.30;;;22.60;71.20;;;;;;5073396;28;20024;-79
2023/07/16 12:09:34;;;;;;;7.63;2.63;;;22.70;71.00;;;;;;5056428;28;20448;-78
2023/07/16 12:12:00;;;;;;;6.43;2.15;;;22.80;70.70;;;;;;5056731;28;20043;-78
2023/07/16 12:14:26;;;;;;;5.00;2.05;;;22.90;70.60;;;;;;5074434;28;20033;-79
2023/07/16 12:16:52;;;;;;;6.25;2.28;;;22.90;70.50;;;;;;5056652;28;20020;-78
2023/07/16 12:19:17;;;;;;;5.25;2.20;;;22.90;70.30;;;;;;5073141;28;20028;-79
2023/07/16 12:21:43;;;;;;;7.30;2.75;;;22.90;70.20;;;;;;5056423;28;20051;-79
2023/07/16 12:24:09;;;;;;;6.78;2.78;;;23.00;70.20;;;;;;5072968;28;20038;-79
2023/07/16 12:26:35;;;;;;;5.68;1.95;;;23.00;69.70;;;;;;5073007;28;20496;-79
2023/07/16 12:29:05;;;;;;;6.13;2.20;;;23.00;69.70;;;;;;5056156;28;20020;-79
2023/07/16 12:31:34;;;;;;;6.50;2.63;;;23.10;69.60;;;;;;5072737;28;20021;-78
2023/07/16 12:34:04;;;;;;;5.43;2.00;;;23.10;69.50;;;;;;5072650;28;20025;-79
2023/07/16 12:36:30;;;;;;;5.78;2.28;;;23.30;69.60;;;;;;5074056;28;20032;-81
2023/07/16 12:38:55;;;;;;;5.55;2.00;;;23.60;69.40;;;;;;5073824;28;20411;-79
2023/07/16 12:41:21;;;;;;;4.88;2.33;;;23.80;68.90;;;;;;5056063;28;20061;-79
2023/07/16 12:43:47;;;;;;;8.00;2.30;;;24.00;68.60;;;;;;5072422;28;20395;-78